Bradford, Massachusetts
Current Conditions -  °F | °C
As of 7:54 AM on Saturday 25 Oct 2014 (Local Time) from KLWM Reporting Station
Clear Clear  
Wind Chill: 39°   Ceiling: Unl
Heat Index: 43°   Visibility: 10mi
Dew Point: 39°   Wind: 6mph
Humidity: 86%   Direction: 210°SSW
Pressure: 29.77"   Gusts: NA
Location:  42.7512°N, 71.0864°W
Report Text: KLWM 251154Z 21005KT 10SM CLR 06/04 A2977 RMK AO2 SLP080 T00610039 10089 20056 53002
Loading
Personal Weather Stations






























Interactive Weather Map
Tropical Storm Tracking
New forecast layout! Learn more

10-Day Weather Forecast

Advertisements
Track Severe Weather on mobile